createdAt,value
2019-05-14T00:01:42.254Z,43.78
2019-05-14T00:04:13.964Z,32.10
2019-05-14T00:06:45.926Z,36.28
2019-05-14T00:09:17.478Z,37.35
2019-05-14T00:11:51.249Z,38.85
2019-05-14T00:14:35.711Z,39.23
2019-05-14T00:16:55.717Z,33.40
2019-05-14T00:19:27.374Z,33.53
2019-05-14T00:21:59.132Z,30.43
2019-05-14T00:24:32.316Z,36.25
2019-05-14T00:27:04.084Z,32.20
2019-05-14T00:29:35.838Z,30.82
2019-05-14T00:32:07.797Z,31.50
2019-05-14T00:34:39.247Z,32.40
2019-05-14T00:37:11.681Z,33.20
2019-05-14T00:39:43.172Z,35.25
2019-05-14T00:42:14.734Z,31.82
2019-05-14T00:44:54.274Z,36.55
2019-05-14T00:47:21.618Z,35.10
2019-05-14T00:49:52.972Z,30.65
2019-05-14T00:52:24.975Z,34.38
2019-05-14T00:55:01.984Z,37.65
2019-05-14T00:57:31.607Z,31.12
2019-05-14T01:00:03.275Z,31.55
2019-05-14T01:02:35.165Z,31.85
2019-05-14T01:05:08.729Z,33.08
2019-05-14T01:07:42.088Z,34.65
2019-05-14T01:10:13.889Z,30.82
2019-05-14T01:12:45.540Z,33.88
2019-05-14T01:15:17.408Z,30.37
2019-05-14T01:17:48.965Z,30.75
2019-05-14T01:20:22.551Z,30.88
2019-05-14T01:22:54.315Z,30.62
2019-05-14T01:27:56.084Z,32.20
2019-05-14T01:30:27.944Z,31.17
2019-05-14T01:33:01.785Z,32.03
2019-05-14T01:35:34.739Z,33.13
2019-05-14T01:38:06.287Z,34.48
2019-05-14T01:40:41.799Z,31.27
2019-05-14T01:43:13.799Z,31.00
2019-05-14T01:45:45.557Z,32.73
2019-05-14T01:48:17.008Z,32.75
2019-05-14T01:50:48.659Z,34.65
2019-05-14T01:53:22.044Z,34.58
2019-05-14T01:55:53.606Z,31.73
2019-05-14T01:58:25.378Z,32.85
2019-05-14T02:00:57.679Z,33.28
2019-05-14T02:03:29.391Z,32.13
2019-05-14T02:06:01.672Z,37.42
2019-05-14T02:08:33.326Z,38.53
2019-05-14T02:11:04.968Z,34.25
2019-05-14T02:13:36.729Z,35.20
2019-05-14T02:16:08.517Z,32.70
2019-05-14T02:18:41.624Z,37.67
2019-05-14T02:21:13.232Z,32.33
2019-05-14T02:23:44.682Z,33.98
2019-05-14T02:26:16.330Z,36.63
2019-05-14T02:28:48.110Z,35.68
2019-05-14T02:31:20.456Z,33.78
2019-05-14T02:33:52.048Z,39.13
2019-05-14T02:36:23.769Z,39.20
2019-05-14T02:38:55.634Z,32.85
2019-05-14T02:41:29.882Z,28.90
2019-05-14T02:44:00.686Z,33.13
2019-05-14T02:46:32.541Z,28.98
2019-05-14T02:49:04.306Z,34.18
2019-05-14T02:51:39.156Z,32.70
2019-05-14T02:54:10.386Z,30.15
2019-05-14T02:56:42.232Z,31.12
2019-05-14T02:59:14.195Z,28.92
2019-05-14T03:04:19.513Z,27.65
2019-05-14T03:06:50.398Z,25.60
2019-05-14T03:09:22.246Z,25.02
2019-05-14T03:11:54.114Z,28.70
2019-05-14T03:14:26.073Z,24.85
2019-05-14T03:16:59.491Z,28.70
2019-05-14T03:19:31.978Z,24.67
2019-05-14T03:22:03.526Z,26.02
2019-05-14T03:24:35.459Z,31.68
2019-05-14T03:27:09.603Z,26.45
2019-05-14T03:29:40.579Z,33.15
2019-05-14T03:32:13.811Z,31.20
2019-05-14T03:34:45.528Z,28.87
2019-05-14T03:37:22.631Z,32.78
2019-05-14T03:39:50.919Z,33.40
2019-05-14T03:42:22.671Z,28.02
2019-05-14T03:44:54.741Z,25.75
2019-05-14T03:47:26.389Z,28.15
2019-05-14T03:49:58.977Z,27.15
2019-05-14T03:52:30.996Z,30.20
2019-05-14T03:55:04.834Z,30.45
2019-05-14T03:57:39.989Z,31.20
2019-05-14T04:00:10.973Z,27.80
2019-05-14T04:02:42.875Z,29.82
2019-05-14T04:05:18.646Z,28.25
2019-05-14T04:07:50.292Z,29.60
2019-05-14T04:10:23.909Z,26.65
2019-05-14T04:12:59.709Z,32.67
2019-05-14T04:15:31.605Z,38.02
2019-05-14T04:18:04.070Z,32.45
2019-05-14T04:20:39.244Z,25.55
2019-05-14T04:23:11.771Z,28.87
2019-05-14T04:25:43.435Z,26.37
2019-05-14T04:28:19.143Z,25.72
2019-05-14T04:30:55.348Z,35.68
2019-05-14T04:33:30.261Z,27.15
2019-05-14T04:36:00.607Z,29.07
2019-05-14T04:38:32.066Z,23.10
2019-05-14T04:41:04.126Z,36.35
2019-05-14T04:43:35.668Z,24.92
2019-05-14T04:46:10.477Z,28.55
2019-05-14T04:48:43.449Z,28.15
2019-05-14T04:51:14.117Z,28.90
2019-05-14T04:53:49.368Z,25.02
2019-05-14T04:56:21.325Z,24.10
2019-05-14T04:58:53.189Z,27.35
2019-05-14T05:01:25.190Z,32.58
2019-05-14T05:03:59.101Z,33.42
2019-05-14T05:06:30.708Z,39.78
2019-05-14T05:09:02.668Z,28.32
2019-05-14T05:11:34.628Z,29.30
2019-05-14T05:14:08.839Z,38.20
2019-05-14T05:16:39.441Z,30.48
2019-05-14T05:19:11.234Z,29.18
2019-05-14T05:21:42.989Z,27.95
2019-05-14T05:24:14.852Z,29.05
2019-05-14T05:26:48.563Z,26.10
2019-05-14T05:29:20.312Z,30.48
2019-05-14T05:31:51.870Z,99.15
2019-05-14T05:34:23.411Z,26.90
2019-05-14T05:36:55.180Z,32.48
2019-05-14T05:39:28.268Z,28.30
2019-05-14T05:41:59.920Z,24.65
2019-05-14T05:44:31.774Z,30.88
2019-05-14T05:47:03.728Z,24.05
2019-05-14T05:49:35.290Z,26.77
2019-05-14T05:52:08.559Z,24.00
2019-05-14T05:54:40.138Z,20.65
2019-05-14T05:57:11.997Z,25.08
2019-05-14T05:59:43.981Z,25.45
2019-05-14T06:02:18.374Z,24.65
2019-05-14T06:04:52.786Z,25.97
2019-05-14T06:07:24.237Z,23.35
2019-05-14T06:09:56.101Z,20.85
2019-05-14T06:12:29.585Z,19.80
2019-05-14T06:15:00.741Z,22.25
2019-05-14T06:17:32.388Z,18.87
2019-05-14T06:20:05.506Z,18.45
2019-05-14T06:22:38.459Z,21.17
2019-05-14T06:25:11.773Z,18.60
2019-05-14T06:27:43.519Z,18.80
2019-05-14T06:30:18.449Z,27.85
2019-05-14T06:32:50.214Z,33.55
2019-05-14T06:35:21.672Z,27.52
2019-05-14T06:37:53.438Z,22.10
2019-05-14T06:40:25.072Z,22.98
2019-05-14T06:42:59.157Z,20.15
2019-05-14T06:45:30.435Z,22.75
2019-05-14T06:48:02.498Z,18.95
2019-05-14T06:50:34.154Z,18.45
2019-05-14T06:53:08.377Z,22.10
2019-05-14T06:55:39.617Z,20.05
2019-05-14T06:58:11.466Z,18.48
2019-05-14T07:00:43.233Z,18.73
2019-05-14T07:03:15.086Z,20.43
2019-05-14T07:05:49.125Z,19.65
2019-05-14T07:08:21.058Z,23.38
2019-05-14T07:10:52.815Z,15.98
2019-05-14T07:13:24.677Z,18.67
2019-05-14T07:15:58.429Z,17.57
2019-05-14T07:18:45.210Z,18.55
2019-05-14T07:21:03.121Z,23.50
2019-05-14T07:23:34.877Z,23.83
2019-05-14T07:26:08.444Z,18.02
2019-05-14T07:28:42.468Z,21.23
2019-05-14T07:31:12.918Z,17.05
2019-05-14T07:33:44.568Z,20.62
2019-05-14T07:36:18.661Z,18.17
2019-05-14T07:38:49.543Z,18.27
2019-05-14T07:41:20.985Z,17.57
2019-05-14T07:43:52.627Z,19.60
2019-05-14T07:46:24.077Z,15.48
2019-05-14T07:49:05.425Z,22.73
2019-05-14T07:51:29.138Z,17.32
2019-05-14T07:54:00.895Z,15.80
2019-05-14T07:56:32.437Z,16.15
2019-05-14T07:59:04.503Z,15.40
2019-05-14T08:01:38.648Z,15.90
2019-05-14T08:04:11.598Z,16.17
2019-05-14T08:06:43.459Z,17.10
2019-05-14T08:09:15.216Z,16.32
2019-05-14T08:11:48.077Z,18.30
2019-05-14T08:14:20.685Z,25.68
2019-05-14T08:16:52.552Z,18.00
2019-05-14T08:19:27.219Z,21.95
2019-05-14T08:21:58.652Z,18.15
2019-05-14T08:24:32.123Z,21.25
2019-05-14T08:27:03.769Z,19.40
2019-05-14T08:29:37.526Z,16.42
2019-05-14T08:32:09.528Z,17.12
2019-05-14T08:34:41.086Z,16.52
2019-05-14T08:37:12.630Z,14.63
2019-05-14T08:39:44.188Z,17.90
2019-05-14T08:42:18.562Z,16.35
2019-05-14T08:44:51.442Z,25.90
2019-05-14T08:47:23.142Z,13.45
2019-05-14T08:49:54.491Z,14.45
2019-05-14T08:52:28.811Z,14.35
2019-05-14T08:55:10.882Z,14.90
2019-05-14T08:57:34.293Z,15.65
2019-05-14T09:00:13.781Z,16.67
2019-05-14T09:02:42.303Z,13.80
2019-05-14T09:05:14.255Z,12.23
2019-05-14T09:07:45.705Z,12.07
2019-05-14T09:10:19.357Z,15.35
2019-05-14T09:12:50.653Z,11.83
2019-05-14T09:15:22.211Z,10.68
2019-05-14T09:17:53.964Z,10.98
2019-05-14T09:20:25.821Z,10.53
2019-05-14T09:22:59.493Z,11.18
2019-05-14T09:25:30.992Z,21.37
2019-05-14T09:28:02.836Z,10.98
2019-05-14T09:30:34.794Z,10.05
2019-05-14T09:33:08.635Z,11.50
2019-05-14T09:35:39.392Z,12.47
2019-05-14T09:38:11.402Z,10.13
2019-05-14T09:40:43.056Z,11.15
2019-05-14T09:43:14.813Z,15.60
2019-05-14T09:45:48.154Z,12.82
2019-05-14T09:48:20.168Z,15.88
2019-05-14T09:50:51.827Z,13.62
2019-05-14T09:53:23.884Z,13.95
2019-05-14T09:55:55.334Z,12.05
2019-05-14T09:58:28.202Z,21.82
2019-05-14T10:01:00.281Z,11.35
2019-05-14T10:03:31.839Z,11.75
2019-05-14T10:06:03.698Z,13.60
2019-05-14T10:08:35.364Z,12.73
2019-05-14T10:11:07.079Z,11.85
2019-05-14T10:13:39.503Z,20.20
2019-05-14T10:16:11.032Z,14.78
2019-05-14T10:18:42.808Z,11.65
2019-05-14T10:21:14.656Z,14.58
2019-05-14T10:23:47.533Z,12.68
2019-05-14T10:26:20.115Z,14.47
2019-05-14T10:28:51.968Z,14.23
2019-05-14T10:31:23.833Z,12.25
2019-05-14T10:33:55.282Z,11.25
2019-05-14T10:36:29.822Z,13.38
2019-05-14T10:39:00.446Z,11.20
2019-05-14T10:41:34.072Z,18.70
2019-05-14T10:44:09.057Z,11.43
2019-05-14T10:46:39.498Z,13.43
2019-05-14T10:49:19.430Z,15.28
2019-05-14T10:51:44.648Z,11.28
2019-05-14T10:54:24.305Z,13.70
2019-05-14T10:56:49.716Z,12.88
2019-05-14T10:59:21.680Z,13.20
2019-05-14T11:01:53.833Z,12.33
2019-05-14T11:04:28.411Z,12.45
2019-05-14T11:06:59.804Z,11.60
2019-05-14T11:09:31.355Z,14.95
2019-05-14T11:12:03.006Z,14.70
2019-05-14T11:14:34.765Z,12.95
2019-05-14T11:17:11.403Z,13.48
2019-05-14T11:19:39.812Z,11.00
2019-05-14T11:22:11.572Z,10.72
2019-05-14T11:24:43.566Z,13.00
2019-05-14T11:27:15.190Z,15.83
2019-05-14T11:29:49.013Z,11.97
2019-05-14T11:32:20.138Z,13.53
2019-05-14T11:34:52.825Z,18.82
2019-05-14T11:37:24.466Z,10.30
2019-05-14T11:39:58.095Z,10.30
2019-05-14T11:42:31.532Z,16.77
2019-05-14T11:45:04.153Z,13.55
2019-05-14T11:47:38.036Z,15.83
2019-05-14T11:50:10.415Z,11.38
2019-05-14T11:52:42.418Z,14.38
2019-05-14T11:55:14.245Z,21.07
2019-05-14T11:57:45.694Z,14.18
2019-05-14T12:00:19.585Z,15.98
2019-05-14T12:02:51.629Z,13.85
2019-05-14T12:05:23.324Z,11.18
2019-05-14T12:07:55.805Z,12.15
2019-05-14T12:10:29.273Z,12.80
2019-05-14T12:13:00.954Z,12.80
2019-05-14T12:15:33.849Z,15.38
2019-05-14T12:18:05.594Z,12.50
2019-05-14T12:20:39.639Z,14.28
2019-05-14T12:23:11.057Z,16.10
2019-05-14T12:25:42.608Z,10.30
2019-05-14T12:28:14.162Z,17.32
2019-05-14T12:30:48.735Z,12.10
2019-05-14T12:33:19.851Z,9.38
2019-05-14T12:35:51.543Z,12.45
2019-05-14T12:38:23.240Z,10.15
2019-05-14T12:40:54.786Z,10.45
2019-05-14T12:43:28.360Z,9.45
2019-05-14T12:45:59.794Z,17.85
2019-05-14T12:48:31.387Z,8.85
2019-05-14T12:51:03.259Z,11.00
2019-05-14T12:53:35.216Z,11.40
2019-05-14T12:56:08.535Z,12.20
2019-05-14T12:58:45.320Z,50.95
2019-05-14T13:01:14.947Z,11.45
2019-05-14T13:03:48.504Z,10.65
2019-05-14T13:06:20.049Z,10.08
2019-05-14T13:08:51.888Z,11.73
2019-05-14T13:11:23.668Z,20.05
2019-05-14T13:13:58.324Z,11.78
2019-05-14T13:16:29.332Z,13.40
2019-05-14T13:19:01.102Z,11.93
2019-05-14T13:21:32.836Z,12.45
2019-05-14T13:24:04.287Z,10.98
2019-05-14T13:26:38.833Z,17.95
2019-05-14T13:29:10.874Z,9.78
2019-05-14T13:31:42.526Z,11.50
2019-05-14T13:34:14.086Z,14.15
2019-05-14T13:36:48.680Z,14.83
2019-05-14T13:39:19.513Z,12.50
2019-05-14T13:41:51.301Z,19.75
2019-05-14T13:44:25.105Z,17.75
2019-05-14T13:46:56.040Z,10.70
2019-05-14T13:49:29.380Z,18.77
2019-05-14T13:52:01.454Z,11.63
2019-05-14T13:54:33.053Z,11.03
2019-05-14T13:57:05.529Z,14.05
2019-05-14T13:59:43.881Z,13.28
2019-05-14T14:02:10.799Z,10.48
2019-05-14T14:04:42.539Z,10.80
2019-05-14T14:07:14.474Z,13.20
2019-05-14T14:09:46.182Z,11.75
2019-05-14T14:12:18.122Z,12.33
2019-05-14T14:14:49.982Z,12.28
2019-05-14T14:17:21.643Z,12.28
2019-05-14T14:19:53.496Z,12.80
2019-05-14T14:22:25.258Z,10.98
2019-05-14T14:24:59.214Z,12.68
2019-05-14T14:27:30.527Z,12.93
2019-05-14T14:30:02.273Z,11.12
2019-05-14T14:32:34.129Z,13.83
2019-05-14T14:35:08.768Z,11.70
2019-05-14T14:37:40.817Z,18.92
2019-05-14T14:40:12.884Z,12.73
2019-05-14T14:42:44.533Z,21.42
2019-05-14T14:45:16.487Z,12.28
2019-05-14T14:47:49.709Z,12.10
2019-05-14T14:50:21.342Z,14.25
2019-05-14T14:52:53.622Z,13.48
2019-05-14T14:55:25.264Z,12.78
2019-05-14T14:57:56.941Z,20.65
2019-05-14T15:00:29.481Z,12.88
2019-05-14T15:03:01.571Z,13.38
2019-05-14T15:05:33.225Z,15.53
2019-05-14T15:08:05.185Z,14.47
2019-05-14T15:10:39.252Z,14.30
2019-05-14T15:13:10.123Z,11.18
2019-05-14T15:15:41.986Z,10.15
2019-05-14T15:18:14.199Z,16.42
2019-05-14T15:20:48.644Z,18.02
2019-05-14T15:23:19.570Z,18.65
2019-05-14T15:25:51.273Z,18.25
2019-05-14T15:28:23.034Z,12.13
2019-05-14T15:30:54.886Z,14.00
2019-05-14T15:33:29.254Z,15.20
2019-05-14T15:35:59.840Z,13.03
2019-05-14T15:38:31.597Z,12.43
2019-05-14T15:41:03.257Z,12.88
2019-05-14T15:43:35.412Z,12.40
2019-05-14T15:46:08.713Z,13.88
2019-05-14T15:48:40.574Z,19.70
2019-05-14T15:51:15.176Z,19.23
2019-05-14T15:54:03.147Z,12.68
2019-05-14T15:56:19.323Z,18.90
2019-05-14T15:58:50.972Z,11.38
2019-05-14T16:01:23.279Z,19.23
2019-05-14T16:03:55.108Z,16.32
2019-05-14T16:06:26.554Z,14.18
2019-05-14T16:08:59.027Z,13.50
2019-05-14T16:11:30.574Z,12.00
2019-05-14T16:14:02.038Z,17.32
2019-05-14T16:16:33.691Z,16.48
2019-05-14T16:19:05.339Z,26.57
2019-05-14T16:21:38.526Z,22.20
2019-05-14T16:24:10.188Z,13.88
2019-05-14T16:26:42.044Z,26.75
2019-05-14T16:29:13.600Z,19.90
2019-05-14T16:31:45.472Z,22.50
2019-05-14T16:34:18.345Z,16.17
2019-05-14T16:36:50.206Z,16.73
2019-05-14T16:39:21.865Z,15.40
2019-05-14T16:41:53.509Z,17.00
2019-05-14T16:44:24.964Z,18.35
2019-05-14T16:46:58.678Z,15.03
2019-05-14T16:49:30.161Z,22.52
2019-05-14T16:52:03.143Z,17.60
2019-05-14T16:54:34.858Z,20.32
2019-05-14T16:57:10.948Z,15.63
2019-05-14T16:59:41.241Z,12.88
2019-05-14T17:02:13.406Z,17.73
2019-05-14T17:04:44.961Z,17.10
2019-05-14T17:07:18.283Z,12.03
2019-05-14T17:09:49.804Z,12.10
2019-05-14T17:12:23.072Z,12.13
2019-05-14T17:14:58.538Z,23.47
2019-05-14T17:17:28.991Z,21.00
2019-05-14T17:20:00.572Z,16.35
2019-05-14T17:22:33.616Z,12.60
2019-05-14T17:25:05.810Z,11.45
2019-05-14T17:27:39.456Z,14.68
2019-05-14T17:30:10.834Z,13.60
2019-05-14T17:32:42.392Z,13.20
2019-05-14T17:35:14.037Z,10.65
2019-05-14T17:37:48.376Z,11.68
2019-05-14T17:40:20.358Z,15.50
2019-05-14T17:42:51.872Z,14.25
2019-05-14T17:45:23.626Z,16.17
2019-05-14T17:47:55.589Z,21.00
2019-05-14T17:50:29.205Z,20.35
2019-05-14T17:53:00.875Z,16.37
2019-05-14T17:55:44.574Z,21.85
2019-05-14T17:58:12.842Z,19.10
2019-05-14T18:00:39.605Z,23.73
2019-05-14T18:03:13.857Z,16.82
2019-05-14T18:05:47.228Z,16.25
2019-05-14T18:08:19.482Z,19.75
2019-05-14T18:10:52.154Z,21.05
2019-05-14T18:13:23.913Z,28.52
2019-05-14T18:15:58.101Z,38.65
2019-05-14T18:18:29.685Z,26.05
2019-05-14T18:21:01.866Z,30.80
2019-05-14T18:23:33.510Z,31.40
2019-05-14T18:26:08.884Z,25.50
2019-05-14T18:28:40.184Z,41.05
2019-05-14T18:31:12.157Z,31.35
2019-05-14T18:33:44.032Z,36.83
2019-05-14T18:36:15.819Z,46.98
2019-05-14T18:38:49.342Z,51.80
2019-05-14T18:41:21.022Z,34.33
2019-05-14T18:43:52.673Z,30.02
2019-05-14T18:46:24.122Z,40.40
2019-05-14T18:48:59.004Z,36.13
2019-05-14T18:51:29.589Z,36.00
2019-05-14T18:54:01.795Z,34.80
2019-05-14T18:56:34.894Z,32.73
2019-05-14T18:59:08.940Z,41.80
2019-05-14T19:01:40.579Z,42.27
2019-05-14T19:04:12.271Z,28.75
2019-05-14T19:06:43.927Z,28.10
2019-05-14T19:09:15.685Z,27.17
2019-05-14T19:11:48.251Z,33.78
2019-05-14T19:14:21.893Z,33.88
2019-05-14T19:16:53.841Z,32.10
2019-05-14T19:19:25.675Z,35.88
2019-05-14T19:21:58.392Z,32.93
2019-05-14T19:24:30.037Z,29.50
2019-05-14T19:27:01.767Z,33.05
2019-05-14T19:29:33.637Z,27.65
2019-05-14T19:32:05.533Z,32.85
2019-05-14T19:34:38.171Z,34.25
2019-05-14T19:37:10.023Z,37.13
2019-05-14T19:39:41.724Z,32.60
2019-05-14T19:42:13.959Z,52.67
2019-05-14T19:44:45.399Z,109.25
2019-05-14T19:47:18.673Z,40.55
2019-05-14T19:49:50.249Z,34.27
2019-05-14T19:52:22.412Z,36.77
2019-05-14T19:54:54.071Z,41.77
2019-05-14T19:57:25.830Z,36.20
2019-05-14T19:59:57.795Z,42.88
2019-05-14T20:02:30.098Z,40.67
2019-05-14T20:05:05.363Z,34.65
2019-05-14T20:07:35.105Z,37.55
2019-05-14T20:10:08.872Z,33.28
2019-05-14T20:12:40.463Z,35.63
2019-05-14T20:15:12.119Z,31.05
2019-05-14T20:17:43.575Z,32.42
2019-05-14T20:20:15.438Z,29.10
2019-05-14T20:22:49.828Z,30.80
2019-05-14T20:25:20.169Z,32.88
2019-05-14T20:27:52.039Z,34.88
2019-05-14T20:30:23.898Z,30.25
2019-05-14T20:32:55.560Z,22.60
2019-05-14T20:35:34.299Z,27.73
2019-05-14T20:38:00.397Z,23.77
2019-05-14T20:40:32.053Z,26.68
2019-05-14T20:43:03.904Z,29.55
2019-05-14T20:45:35.876Z,28.57
2019-05-14T20:48:08.911Z,33.60
2019-05-14T20:50:40.409Z,28.38
2019-05-14T20:55:43.619Z,45.33
2019-05-14T20:58:15.376Z,47.48
2019-05-14T21:00:48.490Z,39.05
2019-05-14T21:03:20.421Z,50.52
2019-05-14T21:05:51.978Z,29.72
2019-05-14T21:08:23.529Z,32.65
2019-05-14T21:10:55.229Z,32.20
2019-05-14T21:13:27.824Z,35.83
2019-05-14T21:15:59.621Z,32.08
2019-05-14T21:18:35.191Z,25.57
2019-05-14T21:21:05.288Z,29.77
2019-05-14T21:23:38.228Z,30.45
2019-05-14T21:26:09.826Z,35.58
2019-05-14T21:28:41.689Z,31.45
2019-05-14T21:31:13.351Z,35.68
2019-05-14T21:33:45.200Z,33.58
2019-05-14T21:36:19.415Z,37.58
2019-05-14T21:38:50.045Z,40.38
2019-05-14T21:41:21.706Z,41.80
2019-05-14T21:43:53.358Z,53.25
2019-05-14T21:48:55.337Z,45.55
2019-05-14T21:51:28.409Z,41.13
2019-05-14T21:54:00.384Z,42.60
2019-05-14T21:56:31.952Z,39.33
2019-05-14T21:59:03.695Z,38.67
2019-05-14T22:01:36.135Z,48.05
2019-05-14T22:04:11.165Z,46.68
2019-05-14T22:06:41.609Z,49.63
2019-05-14T22:09:13.283Z,49.23
2019-05-14T22:11:45.039Z,46.70
2019-05-14T22:14:18.768Z,38.50
2019-05-14T22:16:50.294Z,53.85
2019-05-14T22:19:22.051Z,42.98
2019-05-14T22:21:53.913Z,49.25
2019-05-14T22:24:25.667Z,46.92
2019-05-14T22:29:29.081Z,40.65
2019-05-14T22:32:00.838Z,45.85
2019-05-14T22:34:32.499Z,43.45
2019-05-14T22:37:04.047Z,38.02
2019-05-14T22:39:36.009Z,50.63
2019-05-14T22:42:09.243Z,42.50
2019-05-14T22:44:40.954Z,37.60
2019-05-14T22:47:12.713Z,52.53
2019-05-14T22:49:44.162Z,52.48
2019-05-14T22:52:16.172Z,52.58
2019-05-14T22:54:49.091Z,53.92
2019-05-14T22:57:20.667Z,52.27
2019-05-14T22:59:52.313Z,58.90
2019-05-14T23:02:24.486Z,56.08
2019-05-14T23:04:55.833Z,54.03
2019-05-14T23:09:59.056Z,59.60
2019-05-14T23:12:30.594Z,56.02
2019-05-14T23:15:02.554Z,64.55
2019-05-14T23:17:33.906Z,65.15
2019-05-14T23:20:08.891Z,63.95
2019-05-14T23:22:40.285Z,61.80
2019-05-14T23:25:11.962Z,87.40
2019-05-14T23:27:44.412Z,66.12
2019-05-14T23:30:17.809Z,77.05
2019-05-14T23:32:49.769Z,70.92
2019-05-14T23:35:21.430Z,73.17
2019-05-14T23:37:53.185Z,63.50
2019-05-14T23:40:25.043Z,61.80
2019-05-14T23:42:58.773Z,71.20
2019-05-14T23:45:31.736Z,78.87
2019-05-14T23:48:03.592Z,66.05
2019-05-14T23:50:37.823Z,67.42
2019-05-14T23:53:09.618Z,66.87
2019-05-14T23:55:41.119Z,58.75
2019-05-14T23:58:12.974Z,61.48
